sensor_id;sensor_type;location;lat;lon;timestamp;P1;durP1;ratioP1;P2;durP2;ratioP2
7745;SDS011;3917;42.748;23.278;2022-09-09T00:00:54;11.00;;;7.93;;
7745;SDS011;3917;42.748;23.278;2022-09-09T00:03:26;12.32;;;7.82;;
7745;SDS011;3917;42.748;23.278;2022-09-09T00:05:59;10.05;;;7.35;;
7745;SDS011;3917;42.748;23.278;2022-09-09T00:08:36;7.75;;;6.95;;
7745;SDS011;3917;42.748;23.278;2022-09-09T00:11:12;12.40;;;8.20;;
7745;SDS011;3917;42.748;23.278;2022-09-09T00:13:43;9.82;;;7.15;;
7745;SDS011;3917;42.748;23.278;2022-09-09T00:16:16;8.98;;;7.32;;
7745;SDS011;3917;42.748;23.278;2022-09-09T00:18:50;7.93;;;6.93;;
7745;SDS011;3917;42.748;23.278;2022-09-09T00:21:25;13.25;;;7.70;;
7745;SDS011;3917;42.748;23.278;2022-09-09T00:23:59;10.00;;;7.55;;
7745;SDS011;3917;42.748;23.278;2022-09-09T00:26:36;10.93;;;7.72;;
7745;SDS011;3917;42.748;23.278;2022-09-09T00:29:10;11.20;;;7.85;;
7745;SDS011;3917;42.748;23.278;2022-09-09T00:31:44;15.75;;;7.85;;
7745;SDS011;3917;42.748;23.278;2022-09-09T00:34:13;11.43;;;7.32;;
7745;SDS011;3917;42.748;23.278;2022-09-09T00:36:44;8.40;;;7.25;;
7745;SDS011;3917;42.748;23.278;2022-09-09T00:39:19;12.18;;;8.65;;
7745;SDS011;3917;42.748;23.278;2022-09-09T00:41:54;10.38;;;8.48;;
7745;SDS011;3917;42.748;23.278;2022-09-09T00:44:34;9.82;;;8.20;;
7745;SDS011;3917;42.748;23.278;2022-09-09T00:47:04;9.00;;;8.05;;
7745;SDS011;3917;42.748;23.278;2022-09-09T00:49:44;10.70;;;7.95;;
7745;SDS011;3917;42.748;23.278;2022-09-09T00:52:23;8.57;;;7.70;;
7745;SDS011;3917;42.748;23.278;2022-09-09T00:55:04;12.48;;;8.70;;
7745;SDS011;3917;42.748;23.278;2022-09-09T00:57:36;10.57;;;8.25;;
7745;SDS011;3917;42.748;23.278;2022-09-09T01:00:17;9.80;;;8.68;;
7745;SDS011;3917;42.748;23.278;2022-09-09T01:02:49;12.70;;;7.63;;
7745;SDS011;3917;42.748;23.278;2022-09-09T01:05:24;9.38;;;7.90;;
7745;SDS011;3917;42.748;23.278;2022-09-09T01:08:00;10.20;;;8.48;;
7745;SDS011;3917;42.748;23.278;2022-09-09T01:10:33;9.48;;;8.40;;
7745;SDS011;3917;42.748;23.278;2022-09-09T01:13:08;11.43;;;8.40;;
7745;SDS011;3917;42.748;23.278;2022-09-09T01:18:08;13.13;;;8.15;;
7745;SDS011;3917;42.748;23.278;2022-09-09T01:20:41;10.50;;;6.75;;
7745;SDS011;3917;42.748;23.278;2022-09-09T01:23:24;8.65;;;7.18;;
7745;SDS011;3917;42.748;23.278;2022-09-09T01:26:28;7.88;;;7.00;;
7745;SDS011;3917;42.748;23.278;2022-09-09T01:28:59;8.27;;;7.25;;
7745;SDS011;3917;42.748;23.278;2022-09-09T01:31:27;8.63;;;7.20;;
7745;SDS011;3917;42.748;23.278;2022-09-09T01:33:56;8.88;;;7.72;;
7745;SDS011;3917;42.748;23.278;2022-09-09T01:36:29;8.05;;;7.18;;
7745;SDS011;3917;42.748;23.278;2022-09-09T01:39:01;9.73;;;7.93;;
7745;SDS011;3917;42.748;23.278;2022-09-09T01:41:29;9.65;;;7.50;;
7745;SDS011;3917;42.748;23.278;2022-09-09T01:43:56;9.38;;;7.55;;
7745;SDS011;3917;42.748;23.278;2022-09-09T01:46:23;8.15;;;7.05;;
7745;SDS011;3917;42.748;23.278;2022-09-09T01:48:50;8.25;;;7.28;;
7745;SDS011;3917;42.748;23.278;2022-09-09T01:51:19;8.18;;;7.03;;
7745;SDS011;3917;42.748;23.278;2022-09-09T01:53:46;8.02;;;7.22;;
7745;SDS011;3917;42.748;23.278;2022-09-09T01:56:18;12.18;;;7.80;;
7745;SDS011;3917;42.748;23.278;2022-09-09T01:59:03;9.65;;;8.55;;
7745;SDS011;3917;42.748;23.278;2022-09-09T02:01:46;9.75;;;8.73;;
7745;SDS011;3917;42.748;23.278;2022-09-09T02:04:31;9.07;;;7.90;;
7745;SDS011;3917;42.748;23.278;2022-09-09T02:07:03;9.38;;;7.72;;
7745;SDS011;3917;42.748;23.278;2022-09-09T02:09:35;8.75;;;7.60;;
7745;SDS011;3917;42.748;23.278;2022-09-09T02:12:06;9.05;;;8.13;;
7745;SDS011;3917;42.748;23.278;2022-09-09T02:14:47;9.13;;;7.68;;
7745;SDS011;3917;42.748;23.278;2022-09-09T02:17:18;9.52;;;7.75;;
7745;SDS011;3917;42.748;23.278;2022-09-09T02:19:52;11.30;;;7.97;;
7745;SDS011;3917;42.748;23.278;2022-09-09T02:22:26;10.05;;;8.38;;
7745;SDS011;3917;42.748;23.278;2022-09-09T02:24:56;9.10;;;8.20;;
7745;SDS011;3917;42.748;23.278;2022-09-09T02:27:25;11.75;;;7.60;;
7745;SDS011;3917;42.748;23.278;2022-09-09T02:29:54;9.60;;;8.60;;
7745;SDS011;3917;42.748;23.278;2022-09-09T02:32:25;9.75;;;7.82;;
7745;SDS011;3917;42.748;23.278;2022-09-09T02:34:56;9.18;;;8.18;;
7745;SDS011;3917;42.748;23.278;2022-09-09T02:37:27;10.35;;;8.23;;
7745;SDS011;3917;42.748;23.278;2022-09-09T02:39:58;10.07;;;8.43;;
7745;SDS011;3917;42.748;23.278;2022-09-09T02:42:25;9.50;;;8.27;;
7745;SDS011;3917;42.748;23.278;2022-09-09T02:44:53;11.93;;;8.13;;
7745;SDS011;3917;42.748;23.278;2022-09-09T02:47:24;10.82;;;8.95;;
7745;SDS011;3917;42.748;23.278;2022-09-09T02:50:01;10.35;;;8.32;;
7745;SDS011;3917;42.748;23.278;2022-09-09T02:52:37;11.25;;;9.15;;
7745;SDS011;3917;42.748;23.278;2022-09-09T02:55:16;11.20;;;9.35;;
7745;SDS011;3917;42.748;23.278;2022-09-09T02:57:47;9.32;;;8.18;;
7745;SDS011;3917;42.748;23.278;2022-09-09T03:00:17;9.60;;;8.40;;
7745;SDS011;3917;42.748;23.278;2022-09-09T03:02:49;11.48;;;8.77;;
7745;SDS011;3917;42.748;23.278;2022-09-09T03:05:16;9.98;;;8.38;;
7745;SDS011;3917;42.748;23.278;2022-09-09T03:07:43;10.70;;;8.55;;
7745;SDS011;3917;42.748;23.278;2022-09-09T03:10:10;10.32;;;9.32;;
7745;SDS011;3917;42.748;23.278;2022-09-09T03:12:37;8.98;;;7.80;;
7745;SDS011;3917;42.748;23.278;2022-09-09T03:15:04;10.48;;;8.57;;
7745;SDS011;3917;42.748;23.278;2022-09-09T03:17:33;10.55;;;8.07;;
7745;SDS011;3917;42.748;23.278;2022-09-09T03:20:00;8.98;;;8.02;;
7745;SDS011;3917;42.748;23.278;2022-09-09T03:22:28;9.90;;;8.23;;
7745;SDS011;3917;42.748;23.278;2022-09-09T03:24:54;11.20;;;7.97;;
7745;SDS011;3917;42.748;23.278;2022-09-09T03:27:21;13.98;;;7.88;;
7745;SDS011;3917;42.748;23.278;2022-09-09T03:29:48;10.05;;;8.48;;
7745;SDS011;3917;42.748;23.278;2022-09-09T03:32:16;13.70;;;8.75;;
7745;SDS011;3917;42.748;23.278;2022-09-09T03:34:44;10.73;;;8.23;;
7745;SDS011;3917;42.748;23.278;2022-09-09T03:37:14;10.23;;;8.27;;
7745;SDS011;3917;42.748;23.278;2022-09-09T03:39:42;11.32;;;8.07;;
7745;SDS011;3917;42.748;23.278;2022-09-09T03:42:11;12.63;;;8.65;;
7745;SDS011;3917;42.748;23.278;2022-09-09T03:44:39;16.52;;;9.82;;
7745;SDS011;3917;42.748;23.278;2022-09-09T03:47:07;15.50;;;9.57;;
7745;SDS011;3917;42.748;23.278;2022-09-09T03:49:33;12.93;;;9.25;;
7745;SDS011;3917;42.748;23.278;2022-09-09T03:52:01;12.90;;;9.13;;
7745;SDS011;3917;42.748;23.278;2022-09-09T03:54:28;13.43;;;9.18;;
7745;SDS011;3917;42.748;23.278;2022-09-09T03:56:55;13.98;;;8.50;;
7745;SDS011;3917;42.748;23.278;2022-09-09T03:59:23;10.55;;;8.57;;
7745;SDS011;3917;42.748;23.278;2022-09-09T04:01:50;13.40;;;8.45;;
7745;SDS011;3917;42.748;23.278;2022-09-09T04:04:17;11.02;;;9.13;;
7745;SDS011;3917;42.748;23.278;2022-09-09T04:06:47;12.65;;;8.70;;
7745;SDS011;3917;42.748;23.278;2022-09-09T04:09:17;11.13;;;8.75;;
7745;SDS011;3917;42.748;23.278;2022-09-09T04:11:44;12.55;;;9.25;;
7745;SDS011;3917;42.748;23.278;2022-09-09T04:14:11;15.75;;;9.18;;
7745;SDS011;3917;42.748;23.278;2022-09-09T04:16:38;11.15;;;8.90;;
7745;SDS011;3917;42.748;23.278;2022-09-09T04:19:09;17.67;;;10.75;;
7745;SDS011;3917;42.748;23.278;2022-09-09T04:21:38;17.45;;;9.65;;
7745;SDS011;3917;42.748;23.278;2022-09-09T04:24:06;25.33;;;9.68;;
7745;SDS011;3917;42.748;23.278;2022-09-09T04:26:35;12.63;;;9.52;;
7745;SDS011;3917;42.748;23.278;2022-09-09T04:29:05;17.30;;;8.57;;
7745;SDS011;3917;42.748;23.278;2022-09-09T04:31:33;10.68;;;7.88;;
7745;SDS011;3917;42.748;23.278;2022-09-09T04:33:59;11.50;;;7.45;;
7745;SDS011;3917;42.748;23.278;2022-09-09T04:36:30;10.77;;;7.72;;
7745;SDS011;3917;42.748;23.278;2022-09-09T04:38:58;8.95;;;7.30;;
7745;SDS011;3917;42.748;23.278;2022-09-09T04:41:25;10.77;;;6.90;;
7745;SDS011;3917;42.748;23.278;2022-09-09T04:43:53;9.02;;;6.57;;
7745;SDS011;3917;42.748;23.278;2022-09-09T04:46:20;10.93;;;7.15;;
7745;SDS011;3917;42.748;23.278;2022-09-09T04:48:48;7.55;;;5.97;;
7745;SDS011;3917;42.748;23.278;2022-09-09T04:51:15;8.32;;;6.38;;
7745;SDS011;3917;42.748;23.278;2022-09-09T04:53:42;7.65;;;6.85;;
7745;SDS011;3917;42.748;23.278;2022-09-09T04:56:09;7.45;;;5.78;;
7745;SDS011;3917;42.748;23.278;2022-09-09T04:58:38;5.97;;;5.40;;
7745;SDS011;3917;42.748;23.278;2022-09-09T05:01:08;10.00;;;5.93;;
7745;SDS011;3917;42.748;23.278;2022-09-09T05:03:37;8.30;;;5.95;;
7745;SDS011;3917;42.748;23.278;2022-09-09T05:06:05;8.43;;;6.32;;
7745;SDS011;3917;42.748;23.278;2022-09-09T05:08:33;15.77;;;6.93;;
7745;SDS011;3917;42.748;23.278;2022-09-09T05:11:00;7.93;;;6.53;;
7745;SDS011;3917;42.748;23.278;2022-09-09T05:13:27;10.52;;;6.68;;
7745;SDS011;3917;42.748;23.278;2022-09-09T05:15:56;12.95;;;7.22;;
7745;SDS011;3917;42.748;23.278;2022-09-09T05:18:25;7.75;;;6.95;;
7745;SDS011;3917;42.748;23.278;2022-09-09T05:20:51;7.93;;;6.47;;
7745;SDS011;3917;42.748;23.278;2022-09-09T05:23:18;7.93;;;5.90;;
7745;SDS011;3917;42.748;23.278;2022-09-09T05:25:54;8.40;;;6.05;;
7745;SDS011;3917;42.748;23.278;2022-09-09T05:28:22;9.50;;;5.45;;
7745;SDS011;3917;42.748;23.278;2022-09-09T05:30:55;5.40;;;4.78;;
7745;SDS011;3917;42.748;23.278;2022-09-09T05:33:24;12.70;;;5.00;;
7745;SDS011;3917;42.748;23.278;2022-09-09T05:35:55;5.05;;;4.60;;
7745;SDS011;3917;42.748;23.278;2022-09-09T05:38:26;7.00;;;4.85;;
7745;SDS011;3917;42.748;23.278;2022-09-09T05:40:54;6.93;;;5.10;;
7745;SDS011;3917;42.748;23.278;2022-09-09T05:43:21;9.13;;;4.93;;
7745;SDS011;3917;42.748;23.278;2022-09-09T05:45:58;10.05;;;4.55;;
7745;SDS011;3917;42.748;23.278;2022-09-09T05:48:28;5.65;;;3.90;;
7745;SDS011;3917;42.748;23.278;2022-09-09T05:50:56;10.23;;;4.25;;
7745;SDS011;3917;42.748;23.278;2022-09-09T05:53:23;9.70;;;4.78;;
7745;SDS011;3917;42.748;23.278;2022-09-09T05:55:50;9.48;;;4.10;;
7745;SDS011;3917;42.748;23.278;2022-09-09T05:58:17;5.22;;;4.10;;
7745;SDS011;3917;42.748;23.278;2022-09-09T06:00:44;6.10;;;4.25;;
7745;SDS011;3917;42.748;23.278;2022-09-09T06:03:11;5.68;;;4.03;;
7745;SDS011;3917;42.748;23.278;2022-09-09T06:05:40;5.15;;;3.53;;
7745;SDS011;3917;42.748;23.278;2022-09-09T06:08:07;9.43;;;4.43;;
7745;SDS011;3917;42.748;23.278;2022-09-09T06:10:34;5.53;;;4.18;;
7745;SDS011;3917;42.748;23.278;2022-09-09T06:13:01;8.48;;;4.60;;
7745;SDS011;3917;42.748;23.278;2022-09-09T06:15:28;4.68;;;4.22;;
7745;SDS011;3917;42.748;23.278;2022-09-09T06:17:55;6.32;;;4.88;;
7745;SDS011;3917;42.748;23.278;2022-09-09T06:20:22;7.57;;;4.57;;
7745;SDS011;3917;42.748;23.278;2022-09-09T06:22:51;5.60;;;4.45;;
7745;SDS011;3917;42.748;23.278;2022-09-09T06:25:18;9.35;;;4.75;;
7745;SDS011;3917;42.748;23.278;2022-09-09T06:27:48;5.35;;;4.10;;
7745;SDS011;3917;42.748;23.278;2022-09-09T06:30:15;5.00;;;4.05;;
7745;SDS011;3917;42.748;23.278;2022-09-09T06:32:43;4.35;;;3.95;;
7745;SDS011;3917;42.748;23.278;2022-09-09T06:35:10;5.40;;;4.13;;
7745;SDS011;3917;42.748;23.278;2022-09-09T06:37:37;4.97;;;3.72;;
7745;SDS011;3917;42.748;23.278;2022-09-09T06:40:08;4.03;;;3.28;;
7745;SDS011;3917;42.748;23.278;2022-09-09T06:42:36;3.78;;;3.00;;
7745;SDS011;3917;42.748;23.278;2022-09-09T06:45:04;3.63;;;3.33;;
7745;SDS011;3917;42.748;23.278;2022-09-09T06:47:32;3.20;;;2.95;;
7745;SDS011;3917;42.748;23.278;2022-09-09T06:49:59;5.47;;;2.97;;
7745;SDS011;3917;42.748;23.278;2022-09-09T06:52:26;3.30;;;3.10;;
7745;SDS011;3917;42.748;23.278;2022-09-09T06:54:53;4.60;;;3.45;;
7745;SDS011;3917;42.748;23.278;2022-09-09T06:57:22;2.80;;;2.60;;
7745;SDS011;3917;42.748;23.278;2022-09-09T06:59:49;4.13;;;2.80;;
7745;SDS011;3917;42.748;23.278;2022-09-09T07:02:16;3.20;;;2.67;;
7745;SDS011;3917;42.748;23.278;2022-09-09T07:04:43;4.03;;;2.97;;
7745;SDS011;3917;42.748;23.278;2022-09-09T07:07:12;7.40;;;3.53;;
7745;SDS011;3917;42.748;23.278;2022-09-09T07:09:40;4.38;;;3.22;;
7745;SDS011;3917;42.748;23.278;2022-09-09T07:12:07;3.00;;;2.78;;
7745;SDS011;3917;42.748;23.278;2022-09-09T07:14:35;3.80;;;3.22;;
7745;SDS011;3917;42.748;23.278;2022-09-09T07:17:03;3.40;;;2.83;;
7745;SDS011;3917;42.748;23.278;2022-09-09T07:19:29;3.00;;;2.80;;
7745;SDS011;3917;42.748;23.278;2022-09-09T07:21:57;3.20;;;3.00;;
7745;SDS011;3917;42.748;23.278;2022-09-09T07:24:37;3.10;;;2.90;;
7745;SDS011;3917;42.748;23.278;2022-09-09T07:27:04;3.42;;;3.13;;
7745;SDS011;3917;42.748;23.278;2022-09-09T07:29:37;5.72;;;3.25;;
7745;SDS011;3917;42.748;23.278;2022-09-09T07:32:10;2.60;;;2.40;;
7745;SDS011;3917;42.748;23.278;2022-09-09T07:34:37;2.90;;;2.70;;
7745;SDS011;3917;42.748;23.278;2022-09-09T07:37:05;5.43;;;2.63;;
7745;SDS011;3917;42.748;23.278;2022-09-09T07:39:32;3.42;;;2.40;;
7745;SDS011;3917;42.748;23.278;2022-09-09T07:41:59;2.92;;;2.72;;
7745;SDS011;3917;42.748;23.278;2022-09-09T07:44:26;6.50;;;3.33;;
7745;SDS011;3917;42.748;23.278;2022-09-09T07:46:55;3.53;;;3.00;;
7745;SDS011;3917;42.748;23.278;2022-09-09T07:49:23;3.10;;;2.90;;
7745;SDS011;3917;42.748;23.278;2022-09-09T07:51:49;2.90;;;2.70;;
7745;SDS011;3917;42.748;23.278;2022-09-09T07:54:17;5.45;;;3.08;;
7745;SDS011;3917;42.748;23.278;2022-09-09T07:56:48;2.97;;;2.60;;
7745;SDS011;3917;42.748;23.278;2022-09-09T07:59:16;5.45;;;2.92;;
7745;SDS011;3917;42.748;23.278;2022-09-09T08:01:44;3.40;;;3.10;;
7745;SDS011;3917;42.748;23.278;2022-09-09T08:04:15;2.92;;;2.72;;
7745;SDS011;3917;42.748;23.278;2022-09-09T08:06:44;5.25;;;2.97;;
7745;SDS011;3917;42.748;23.278;2022-09-09T08:09:12;3.30;;;3.10;;
7745;SDS011;3917;42.748;23.278;2022-09-09T08:11:40;3.03;;;2.83;;
7745;SDS011;3917;42.748;23.278;2022-09-09T08:14:08;3.15;;;2.70;;
7745;SDS011;3917;42.748;23.278;2022-09-09T08:16:38;3.05;;;2.85;;
7745;SDS011;3917;42.748;23.278;2022-09-09T08:19:06;5.63;;;3.10;;
7745;SDS011;3917;42.748;23.278;2022-09-09T08:21:36;4.72;;;2.78;;
7745;SDS011;3917;42.748;23.278;2022-09-09T08:24:05;3.33;;;2.97;;
7745;SDS011;3917;42.748;23.278;2022-09-09T08:26:33;4.97;;;2.83;;
7745;SDS011;3917;42.748;23.278;2022-09-09T08:29:03;3.60;;;3.00;;
7745;SDS011;3917;42.748;23.278;2022-09-09T08:31:31;3.83;;;3.03;;
7745;SDS011;3917;42.748;23.278;2022-09-09T08:34:00;2.63;;;2.53;;
7745;SDS011;3917;42.748;23.278;2022-09-09T08:36:29;4.00;;;3.20;;
7745;SDS011;3917;42.748;23.278;2022-09-09T08:38:59;4.50;;;3.05;;
7745;SDS011;3917;42.748;23.278;2022-09-09T08:41:39;4.40;;;3.10;;
7745;SDS011;3917;42.748;23.278;2022-09-09T08:44:19;3.30;;;3.10;;
7745;SDS011;3917;42.748;23.278;2022-09-09T08:47:00;3.65;;;3.35;;
7745;SDS011;3917;42.748;23.278;2022-09-09T08:52:28;3.28;;;3.00;;
7745;SDS011;3917;42.748;23.278;2022-09-09T08:55:05;5.45;;;3.03;;
7745;SDS011;3917;42.748;23.278;2022-09-09T08:57:46;4.40;;;2.55;;
7745;SDS011;3917;42.748;23.278;2022-09-09T09:00:15;5.70;;;3.40;;
7745;SDS011;3917;42.748;23.278;2022-09-09T09:02:46;5.68;;;3.20;;
7745;SDS011;3917;42.748;23.278;2022-09-09T09:05:22;3.47;;;3.20;;
7745;SDS011;3917;42.748;23.278;2022-09-09T09:07:59;6.13;;;3.55;;
7745;SDS011;3917;42.748;23.278;2022-09-09T09:10:37;3.38;;;3.03;;
7745;SDS011;3917;42.748;23.278;2022-09-09T09:13:13;3.00;;;2.80;;
7745;SDS011;3917;42.748;23.278;2022-09-09T09:15:42;2.97;;;2.70;;
7745;SDS011;3917;42.748;23.278;2022-09-09T09:18:13;3.13;;;2.92;;
7745;SDS011;3917;42.748;23.278;2022-09-09T09:20:42;2.97;;;2.80;;
7745;SDS011;3917;42.748;23.278;2022-09-09T09:23:19;2.88;;;2.67;;
7745;SDS011;3917;42.748;23.278;2022-09-09T09:25:50;2.80;;;2.60;;
7745;SDS011;3917;42.748;23.278;2022-09-09T09:28:19;7.63;;;3.47;;
7745;SDS011;3917;42.748;23.278;2022-09-09T09:30:50;4.25;;;3.00;;
7745;SDS011;3917;42.748;23.278;2022-09-09T09:33:20;4.53;;;3.33;;
7745;SDS011;3917;42.748;23.278;2022-09-09T09:35:53;3.03;;;2.72;;
7745;SDS011;3917;42.748;23.278;2022-09-09T09:38:20;6.90;;;3.05;;
7745;SDS011;3917;42.748;23.278;2022-09-09T09:40:51;3.17;;;2.90;;
7745;SDS011;3917;42.748;23.278;2022-09-09T09:43:24;3.45;;;2.53;;
7745;SDS011;3917;42.748;23.278;2022-09-09T09:45:53;4.40;;;2.92;;
7745;SDS011;3917;42.748;23.278;2022-09-09T09:48:20;3.45;;;3.15;;
7745;SDS011;3917;42.748;23.278;2022-09-09T09:50:49;4.78;;;4.00;;
7745;SDS011;3917;42.748;23.278;2022-09-09T09:53:20;4.30;;;3.00;;
7745;SDS011;3917;42.748;23.278;2022-09-09T09:55:52;7.03;;;3.55;;
7745;SDS011;3917;42.748;23.278;2022-09-09T09:58:22;4.75;;;3.65;;
7745;SDS011;3917;42.748;23.278;2022-09-09T10:00:51;3.72;;;3.33;;
7745;SDS011;3917;42.748;23.278;2022-09-09T10:03:21;3.40;;;3.10;;
7745;SDS011;3917;42.748;23.278;2022-09-09T10:05:49;5.03;;;3.13;;
7745;SDS011;3917;42.748;23.278;2022-09-09T10:08:17;3.60;;;3.30;;
7745;SDS011;3917;42.748;23.278;2022-09-09T10:10:59;4.65;;;4.22;;
7745;SDS011;3917;42.748;23.278;2022-09-09T10:13:36;4.90;;;4.40;;
7745;SDS011;3917;42.748;23.278;2022-09-09T10:16:22;6.35;;;4.13;;
7745;SDS011;3917;42.748;23.278;2022-09-09T10:19:00;6.72;;;4.10;;
7745;SDS011;3917;42.748;23.278;2022-09-09T10:21:43;4.90;;;4.28;;
7745;SDS011;3917;42.748;23.278;2022-09-09T10:27:33;3.92;;;3.63;;
7745;SDS011;3917;42.748;23.278;2022-09-09T10:30:11;7.40;;;3.95;;
7745;SDS011;3917;42.748;23.278;2022-09-09T10:32:46;5.50;;;4.28;;
7745;SDS011;3917;42.748;23.278;2022-09-09T10:35:24;4.18;;;3.78;;
7745;SDS011;3917;42.748;23.278;2022-09-09T10:40:59;5.85;;;3.97;;
7745;SDS011;3917;42.748;23.278;2022-09-09T10:43:42;4.68;;;3.90;;
7745;SDS011;3917;42.748;23.278;2022-09-09T10:46:27;5.30;;;3.85;;
7745;SDS011;3917;42.748;23.278;2022-09-09T10:49:05;9.45;;;4.78;;
7745;SDS011;3917;42.748;23.278;2022-09-09T10:51:43;4.68;;;4.28;;
7745;SDS011;3917;42.748;23.278;2022-09-09T10:54:23;8.60;;;4.40;;
7745;SDS011;3917;42.748;23.278;2022-09-09T10:57:03;4.88;;;4.15;;
7745;SDS011;3917;42.748;23.278;2022-09-09T10:59:38;3.63;;;3.33;;
7745;SDS011;3917;42.748;23.278;2022-09-09T11:02:11;4.72;;;3.47;;
7745;SDS011;3917;42.748;23.278;2022-09-09T11:04:44;4.55;;;4.15;;
7745;SDS011;3917;42.748;23.278;2022-09-09T11:07:21;5.90;;;4.57;;
7745;SDS011;3917;42.748;23.278;2022-09-09T11:09:56;5.47;;;4.18;;
7745;SDS011;3917;42.748;23.278;2022-09-09T11:12:30;4.20;;;3.80;;
7745;SDS011;3917;42.748;23.278;2022-09-09T11:15:04;4.32;;;4.03;;
7745;SDS011;3917;42.748;23.278;2022-09-09T11:17:46;4.43;;;4.03;;
7745;SDS011;3917;42.748;23.278;2022-09-09T11:20:16;4.57;;;4.28;;
7745;SDS011;3917;42.748;23.278;2022-09-09T11:22:44;5.03;;;4.35;;
7745;SDS011;3917;42.748;23.278;2022-09-09T11:25:20;5.03;;;4.63;;
7745;SDS011;3917;42.748;23.278;2022-09-09T11:30:42;5.18;;;4.40;;
7745;SDS011;3917;42.748;23.278;2022-09-09T11:36:28;4.72;;;4.32;;
7745;SDS011;3917;42.748;23.278;2022-09-09T11:39:17;4.20;;;3.63;;
7745;SDS011;3917;42.748;23.278;2022-09-09T11:42:06;4.35;;;3.95;;
7745;SDS011;3917;42.748;23.278;2022-09-09T11:44:37;4.70;;;4.28;;
7745;SDS011;3917;42.748;23.278;2022-09-09T11:47:15;5.38;;;4.80;;
7745;SDS011;3917;42.748;23.278;2022-09-09T11:49:45;5.25;;;4.35;;
7745;SDS011;3917;42.748;23.278;2022-09-09T11:52:12;5.43;;;4.45;;
7745;SDS011;3917;42.748;23.278;2022-09-09T11:54:47;4.57;;;4.18;;
7745;SDS011;3917;42.748;23.278;2022-09-09T11:57:23;4.28;;;3.88;;
7745;SDS011;3917;42.748;23.278;2022-09-09T11:59:53;4.43;;;4.13;;
7745;SDS011;3917;42.748;23.278;2022-09-09T12:02:24;5.55;;;4.25;;
7745;SDS011;3917;42.748;23.278;2022-09-09T12:04:55;5.88;;;4.32;;
7745;SDS011;3917;42.748;23.278;2022-09-09T12:07:32;4.35;;;3.95;;
7745;SDS011;3917;42.748;23.278;2022-09-09T12:10:04;4.93;;;4.43;;
7745;SDS011;3917;42.748;23.278;2022-09-09T12:12:45;4.05;;;3.75;;
7745;SDS011;3917;42.748;23.278;2022-09-09T12:15:20;4.50;;;4.10;;
7745;SDS011;3917;42.748;23.278;2022-09-09T12:17:56;4.32;;;3.95;;
7745;SDS011;3917;42.748;23.278;2022-09-09T12:20:30;4.80;;;4.40;;
7745;SDS011;3917;42.748;23.278;2022-09-09T12:25:56;4.43;;;3.78;;
7745;SDS011;3917;42.748;23.278;2022-09-09T12:28:40;5.63;;;3.90;;
7745;SDS011;3917;42.748;23.278;2022-09-09T12:31:14;7.30;;;4.68;;
7745;SDS011;3917;42.748;23.278;2022-09-09T12:33:48;6.18;;;4.32;;
7745;SDS011;3917;42.748;23.278;2022-09-09T12:36:18;4.25;;;3.92;;
7745;SDS011;3917;42.748;23.278;2022-09-09T12:38:47;4.53;;;4.22;;
7745;SDS011;3917;42.748;23.278;2022-09-09T12:41:19;6.85;;;4.80;;
7745;SDS011;3917;42.748;23.278;2022-09-09T12:43:47;6.18;;;4.82;;
7745;SDS011;3917;42.748;23.278;2022-09-09T12:46:17;4.28;;;3.88;;
7745;SDS011;3917;42.748;23.278;2022-09-09T12:48:53;4.32;;;3.97;;
7745;SDS011;3917;42.748;23.278;2022-09-09T12:51:22;4.53;;;4.07;;
7745;SDS011;3917;42.748;23.278;2022-09-09T12:53:52;5.13;;;4.72;;
7745;SDS011;3917;42.748;23.278;2022-09-09T12:56:20;4.80;;;4.40;;
7745;SDS011;3917;42.748;23.278;2022-09-09T12:58:49;5.22;;;4.65;;
7745;SDS011;3917;42.748;23.278;2022-09-09T13:01:22;6.10;;;4.57;;
7745;SDS011;3917;42.748;23.278;2022-09-09T13:03:51;6.57;;;4.05;;
7745;SDS011;3917;42.748;23.278;2022-09-09T13:06:24;5.75;;;3.70;;
7745;SDS011;3917;42.748;23.278;2022-09-09T13:08:53;6.63;;;3.40;;
7745;SDS011;3917;42.748;23.278;2022-09-09T13:11:24;5.55;;;3.70;;
7745;SDS011;3917;42.748;23.278;2022-09-09T13:13:56;3.80;;;3.50;;
7745;SDS011;3917;42.748;23.278;2022-09-09T13:16:25;5.07;;;4.32;;
7745;SDS011;3917;42.748;23.278;2022-09-09T13:18:56;7.45;;;4.53;;
7745;SDS011;3917;42.748;23.278;2022-09-09T13:21:32;3.83;;;3.35;;
7745;SDS011;3917;42.748;23.278;2022-09-09T13:24:00;3.83;;;3.53;;
7745;SDS011;3917;42.748;23.278;2022-09-09T13:26:29;5.22;;;3.53;;
7745;SDS011;3917;42.748;23.278;2022-09-09T13:29:07;4.40;;;3.38;;
7745;SDS011;3917;42.748;23.278;2022-09-09T13:31:41;3.47;;;3.20;;
7745;SDS011;3917;42.748;23.278;2022-09-09T13:34:12;3.90;;;3.28;;
7745;SDS011;3917;42.748;23.278;2022-09-09T13:36:40;7.22;;;3.85;;
7745;SDS011;3917;42.748;23.278;2022-09-09T13:39:13;4.95;;;3.15;;
7745;SDS011;3917;42.748;23.278;2022-09-09T13:44:14;8.45;;;3.72;;
7745;SDS011;3917;42.748;23.278;2022-09-09T13:46:46;5.18;;;3.33;;
7745;SDS011;3917;42.748;23.278;2022-09-09T13:49:19;3.85;;;3.42;;
7745;SDS011;3917;42.748;23.278;2022-09-09T13:51:49;5.55;;;3.50;;
7745;SDS011;3917;42.748;23.278;2022-09-09T13:54:19;4.30;;;3.47;;
7745;SDS011;3917;42.748;23.278;2022-09-09T13:56:48;4.18;;;3.15;;
7745;SDS011;3917;42.748;23.278;2022-09-09T13:59:16;5.75;;;3.47;;
7745;SDS011;3917;42.748;23.278;2022-09-09T14:01:46;5.78;;;3.20;;
7745;SDS011;3917;42.748;23.278;2022-09-09T14:04:14;5.47;;;3.30;;
7745;SDS011;3917;42.748;23.278;2022-09-09T14:06:41;7.13;;;3.42;;
7745;SDS011;3917;42.748;23.278;2022-09-09T14:09:11;5.10;;;3.45;;
7745;SDS011;3917;42.748;23.278;2022-09-09T14:11:40;7.53;;;3.38;;
7745;SDS011;3917;42.748;23.278;2022-09-09T14:14:06;5.35;;;3.25;;
7745;SDS011;3917;42.748;23.278;2022-09-09T14:16:33;4.82;;;3.80;;
7745;SDS011;3917;42.748;23.278;2022-09-09T14:19:01;5.63;;;3.30;;
7745;SDS011;3917;42.748;23.278;2022-09-09T14:21:28;4.88;;;2.90;;
7745;SDS011;3917;42.748;23.278;2022-09-09T14:23:55;4.50;;;3.75;;
7745;SDS011;3917;42.748;23.278;2022-09-09T14:26:24;5.05;;;3.05;;
7745;SDS011;3917;42.748;23.278;2022-09-09T14:28:57;3.17;;;2.88;;
7745;SDS011;3917;42.748;23.278;2022-09-09T14:31:24;4.65;;;3.00;;
7745;SDS011;3917;42.748;23.278;2022-09-09T14:33:51;5.05;;;3.00;;
7745;SDS011;3917;42.748;23.278;2022-09-09T14:36:20;4.80;;;3.40;;
7745;SDS011;3917;42.748;23.278;2022-09-09T14:38:47;4.32;;;2.75;;
7745;SDS011;3917;42.748;23.278;2022-09-09T14:41:15;7.18;;;3.08;;
7745;SDS011;3917;42.748;23.278;2022-09-09T14:43:44;3.03;;;2.83;;
7745;SDS011;3917;42.748;23.278;2022-09-09T14:46:12;3.10;;;2.90;;
7745;SDS011;3917;42.748;23.278;2022-09-09T14:48:40;3.72;;;3.42;;
7745;SDS011;3917;42.748;23.278;2022-09-09T14:51:08;8.77;;;3.53;;
7745;SDS011;3917;42.748;23.278;2022-09-09T14:53:37;4.35;;;3.22;;
7745;SDS011;3917;42.748;23.278;2022-09-09T14:56:05;4.55;;;3.33;;
7745;SDS011;3917;42.748;23.278;2022-09-09T14:58:33;3.70;;;3.28;;
7745;SDS011;3917;42.748;23.278;2022-09-09T15:01:06;3.50;;;3.20;;
7745;SDS011;3917;42.748;23.278;2022-09-09T15:03:35;4.28;;;3.35;;
7745;SDS011;3917;42.748;23.278;2022-09-09T15:06:05;4.40;;;3.15;;
7745;SDS011;3917;42.748;23.278;2022-09-09T15:08:33;4.93;;;3.28;;
7745;SDS011;3917;42.748;23.278;2022-09-09T15:11:00;9.00;;;4.22;;
7745;SDS011;3917;42.748;23.278;2022-09-09T15:13:28;5.15;;;4.07;;
7745;SDS011;3917;42.748;23.278;2022-09-09T15:15:55;6.22;;;3.85;;
7745;SDS011;3917;42.748;23.278;2022-09-09T15:18:24;5.38;;;4.07;;
7745;SDS011;3917;42.748;23.278;2022-09-09T15:20:51;4.93;;;3.40;;
7745;SDS011;3917;42.748;23.278;2022-09-09T15:23:18;3.72;;;3.38;;
7745;SDS011;3917;42.748;23.278;2022-09-09T15:25:51;3.55;;;3.10;;
7745;SDS011;3917;42.748;23.278;2022-09-09T15:28:18;5.25;;;3.10;;
7745;SDS011;3917;42.748;23.278;2022-09-09T15:30:47;3.95;;;3.00;;
7745;SDS011;3917;42.748;23.278;2022-09-09T15:33:14;5.10;;;3.35;;
7745;SDS011;3917;42.748;23.278;2022-09-09T15:35:42;3.47;;;3.20;;
7745;SDS011;3917;42.748;23.278;2022-09-09T15:38:09;4.05;;;3.50;;
7745;SDS011;3917;42.748;23.278;2022-09-09T15:40:38;4.75;;;3.47;;
7745;SDS011;3917;42.748;23.278;2022-09-09T15:43:04;4.22;;;3.72;;